createdAt,value
2023-03-05T00:00:56.767Z,1.05
2023-03-05T00:04:01.055Z,1.03
2023-03-05T00:07:02.828Z,1.06
2023-03-05T00:10:09.147Z,1.03
2023-03-05T00:13:11.072Z,1.06
2023-03-05T00:16:13.482Z,1.06
2023-03-05T00:19:17.357Z,1.08
2023-03-05T00:22:19.196Z,1.06
2023-03-05T00:25:22.304Z,1.11
2023-03-05T00:28:24.038Z,1.13
2023-03-05T00:31:26.914Z,1.14
2023-03-05T00:34:29.745Z,1.13
2023-03-05T00:37:31.470Z,1.13
2023-03-05T00:40:36.979Z,1.11
2023-03-05T00:43:38.742Z,1.09
2023-03-05T00:46:40.625Z,1.08
2023-03-05T00:49:42.649Z,1.05
2023-03-05T00:52:44.825Z,1.04
2023-03-05T00:55:50.830Z,1.05
2023-03-05T00:58:54.756Z,1.06
2023-03-05T01:01:56.927Z,1.05
2023-03-05T01:04:58.783Z,1.03
2023-03-05T01:08:00.354Z,1.04
2023-03-05T01:11:03.885Z,1.04
2023-03-05T01:14:05.565Z,1.03
2023-03-05T01:17:07.812Z,0.99
2023-03-05T01:20:10.300Z,1.00
2023-03-05T01:23:12.173Z,1.00
2023-03-05T01:26:16.064Z,0.98
2023-03-05T01:29:17.634Z,0.94
2023-03-05T01:32:19.372Z,0.94
2023-03-05T01:35:22.194Z,0.93
2023-03-05T01:38:24.131Z,0.95
2023-03-05T01:41:26.957Z,0.94
2023-03-05T01:44:29.811Z,0.96
2023-03-05T01:47:31.494Z,0.96
2023-03-05T01:50:33.455Z,0.92
2023-03-05T01:53:35.091Z,0.88
2023-03-05T01:56:39.607Z,0.88
2023-03-05T01:59:43.093Z,0.88
2023-03-05T02:02:49.311Z,0.90
2023-03-05T02:05:50.998Z,0.88
2023-03-05T02:08:52.603Z,0.89
2023-03-05T02:11:56.312Z,0.89
2023-03-05T02:14:59.455Z,0.91
2023-03-05T02:18:03.984Z,0.90
2023-03-05T02:21:07.403Z,0.91
2023-03-05T02:24:11.918Z,0.89
2023-03-05T02:27:14.837Z,0.90
2023-03-05T02:30:16.382Z,0.90
2023-03-05T02:33:19.335Z,0.90
2023-03-05T02:36:23.098Z,0.90
2023-03-05T02:39:24.801Z,0.94
2023-03-05T02:42:26.548Z,0.94
2023-03-05T02:45:28.457Z,0.94
2023-03-05T02:48:30.161Z,0.97
2023-03-05T02:51:33.350Z,0.98
2023-03-05T02:54:35.149Z,0.96
2023-03-05T02:57:38.278Z,0.97
2023-03-05T03:00:39.971Z,1.00
2023-03-05T03:03:41.525Z,1.03
2023-03-05T03:06:45.661Z,1.02
2023-03-05T03:09:47.166Z,1.03
2023-03-05T03:12:48.703Z,1.03
2023-03-05T03:15:50.175Z,1.01
2023-03-05T03:18:51.809Z,0.95
2023-03-05T03:21:55.124Z,0.97
2023-03-05T03:24:56.736Z,0.99
2023-03-05T03:27:58.261Z,0.99
2023-03-05T03:31:00.033Z,0.96
2023-03-05T03:34:01.554Z,0.97
2023-03-05T03:37:04.430Z,1.00
2023-03-05T03:40:06.686Z,0.99
2023-03-05T03:43:08.403Z,1.00
2023-03-05T03:46:10.074Z,1.01
2023-03-05T03:49:14.516Z,1.03
2023-03-05T03:52:17.573Z,1.00
2023-03-05T03:55:19.141Z,1.00
2023-03-05T03:58:20.864Z,0.97
2023-03-05T04:01:22.443Z,1.01
2023-03-05T04:04:24.145Z,0.99
2023-03-05T04:07:27.422Z,1.01
2023-03-05T04:10:29.136Z,1.00
2023-03-05T04:13:30.947Z,1.01
2023-03-05T04:16:32.666Z,1.00
2023-03-05T04:19:34.240Z,1.00
2023-03-05T04:22:37.681Z,1.01
2023-03-05T04:25:39.305Z,1.01
2023-03-05T04:28:40.877Z,1.00
2023-03-05T04:31:42.615Z,0.99
2023-03-05T04:34:44.295Z,0.97
2023-03-05T04:37:47.368Z,0.99
2023-03-05T04:40:49.174Z,1.00
2023-03-05T04:43:50.882Z,1.01
2023-03-05T04:46:52.827Z,1.01
2023-03-05T04:49:54.417Z,1.01
2023-03-05T04:52:57.884Z,0.99
2023-03-05T04:56:01.733Z,1.04
2023-03-05T04:59:03.389Z,1.05
2023-03-05T05:02:05.446Z,1.02
2023-03-05T05:05:07.724Z,1.02
2023-03-05T05:08:11.048Z,1.00
2023-03-05T05:11:13.574Z,1.01
2023-03-05T05:14:15.486Z,1.02
2023-03-05T05:17:17.177Z,1.04
2023-03-05T05:20:18.954Z,1.03
2023-03-05T05:23:22.435Z,1.00
2023-03-05T05:26:24.053Z,0.99
2023-03-05T05:29:26.101Z,1.01
2023-03-05T05:32:27.743Z,1.03
2023-03-05T05:35:29.773Z,1.00
2023-03-05T05:38:32.945Z,1.00
2023-03-05T05:41:34.783Z,0.99
2023-03-05T05:44:36.421Z,1.01
2023-03-05T05:47:37.965Z,1.00
2023-03-05T05:50:41.131Z,0.97
2023-03-05T05:53:44.290Z,0.99
2023-03-05T05:56:45.871Z,0.97
2023-03-05T05:59:47.427Z,0.94
2023-03-05T06:02:49.039Z,0.98
2023-03-05T06:05:52.413Z,0.92
2023-03-05T06:08:55.654Z,0.90
2023-03-05T06:11:57.358Z,0.88
2023-03-05T06:14:59.134Z,0.88
2023-03-05T06:18:01.094Z,0.88
2023-03-05T06:21:04.188Z,0.89
2023-03-05T06:24:07.457Z,0.91
2023-03-05T06:27:09.212Z,0.92
2023-03-05T06:30:11.954Z,0.88
2023-03-05T06:33:13.662Z,0.90
2023-03-05T06:36:17.026Z,0.88
2023-03-05T06:39:19.968Z,0.82
2023-03-05T06:42:22.028Z,0.81
2023-03-05T06:45:23.582Z,0.82
2023-03-05T06:48:25.374Z,0.84
2023-03-05T06:51:28.588Z,0.82
2023-03-05T06:54:31.769Z,0.80
2023-03-05T06:57:33.513Z,0.78
2023-03-05T07:00:35.117Z,0.75
2023-03-05T07:03:37.537Z,0.76
2023-03-05T07:06:39.968Z,0.78
2023-03-05T07:09:44.999Z,0.76
2023-03-05T07:12:46.452Z,0.74
2023-03-05T07:15:48.068Z,0.78
2023-03-05T07:18:49.966Z,0.75
2023-03-05T07:21:51.646Z,0.80
2023-03-05T07:24:54.549Z,0.85
2023-03-05T07:27:56.133Z,0.83
2023-03-05T07:30:58.319Z,0.82
2023-03-05T07:34:00.949Z,0.75
2023-03-05T07:37:02.540Z,0.73
2023-03-05T07:40:06.507Z,0.71
2023-03-05T07:43:08.770Z,0.72
2023-03-05T07:46:12.604Z,0.78
2023-03-05T07:49:14.374Z,0.80
2023-03-05T07:52:16.090Z,0.82
2023-03-05T07:55:19.066Z,0.85
2023-03-05T07:58:23.003Z,0.88
2023-03-05T08:01:25.060Z,0.84
2023-03-05T08:04:26.935Z,0.91
2023-03-05T08:07:37.363Z,0.92
2023-03-05T08:10:41.683Z,0.94
2023-03-05T08:13:44.272Z,0.96
2023-03-05T08:16:48.318Z,0.98
2023-03-05T08:19:50.044Z,0.93
2023-03-05T08:22:51.822Z,0.94
2023-03-05T08:25:55.061Z,0.98
2023-03-05T08:28:57.207Z,1.02
2023-03-05T08:31:58.974Z,1.11
2023-03-05T08:35:02.826Z,1.16
2023-03-05T08:38:04.728Z,1.13
2023-03-05T08:41:07.772Z,1.16
2023-03-05T08:44:09.433Z,1.17
2023-03-05T08:47:11.052Z,1.12
2023-03-05T08:50:14.546Z,1.22
2023-03-05T08:53:16.259Z,1.26
2023-03-05T08:56:19.367Z,1.31
2023-03-05T08:59:20.954Z,1.30
2023-03-05T09:02:23.131Z,1.22
2023-03-05T09:05:24.874Z,1.21
2023-03-05T09:08:27.559Z,1.24
2023-03-05T09:11:30.574Z,1.19
2023-03-05T09:14:32.216Z,1.20
2023-03-05T09:17:34.916Z,1.31
2023-03-05T09:20:37.213Z,1.39
2023-03-05T09:23:39.202Z,1.51
2023-03-05T09:26:42.413Z,1.62
2023-03-05T09:29:44.073Z,1.73
2023-03-05T09:32:45.742Z,1.87
2023-03-05T09:35:48.818Z,1.96
2023-03-05T09:38:50.873Z,2.10
2023-03-05T09:42:09.883Z,2.03
2023-03-05T09:45:17.399Z,2.11
2023-03-05T09:48:20.751Z,2.26
2023-03-05T09:51:24.446Z,2.27
2023-03-05T09:54:30.267Z,2.18
2023-03-05T09:57:39.128Z,2.21
2023-03-05T10:00:42.140Z,2.24
2023-03-05T10:03:48.825Z,2.23
2023-03-05T10:06:53.247Z,2.29
2023-03-05T10:09:56.684Z,2.20
2023-03-05T10:13:01.865Z,2.20
2023-03-05T10:16:07.194Z,2.19
2023-03-05T10:19:13.210Z,2.22
2023-03-05T10:22:17.970Z,2.27
2023-03-05T10:25:23.756Z,2.22
2023-03-05T10:28:33.440Z,2.12
2023-03-05T10:31:46.695Z,2.20
2023-03-05T10:35:07.680Z,2.44
2023-03-05T10:38:38.595Z,2.38
2023-03-05T10:41:45.223Z,2.23
2023-03-05T10:44:51.020Z,2.18
2023-03-05T10:47:54.457Z,2.19
2023-03-05T10:50:59.911Z,2.17
2023-03-05T10:54:05.909Z,2.21
2023-03-05T10:57:16.994Z,2.41
2023-03-05T11:00:21.537Z,2.48
2023-03-05T11:03:23.098Z,2.51
2023-03-05T11:06:29.769Z,2.44
2023-03-05T11:09:32.756Z,2.35
2023-03-05T11:12:35.019Z,2.31
2023-03-05T11:15:37.970Z,2.26
2023-03-05T11:18:39.537Z,2.31
2023-03-05T11:21:41.720Z,2.39
2023-03-05T11:24:43.779Z,2.31
2023-03-05T11:27:51.974Z,2.23
2023-03-05T11:30:57.819Z,2.32
2023-03-05T11:34:01.171Z,2.37
2023-03-05T11:37:06.130Z,2.52
2023-03-05T11:40:20.471Z,2.79
2023-03-05T11:43:23.276Z,2.91
2023-03-05T11:46:27.873Z,2.85
2023-03-05T11:49:32.014Z,2.72
2023-03-05T11:52:40.178Z,2.64
2023-03-05T11:55:44.382Z,2.67
2023-03-05T11:58:48.350Z,2.69
2023-03-05T12:01:53.527Z,2.91
2023-03-05T12:04:56.517Z,3.19
2023-03-05T12:07:59.556Z,3.26
2023-03-05T12:11:05.084Z,3.11
2023-03-05T12:14:15.358Z,2.96
2023-03-05T12:17:22.480Z,2.99
2023-03-05T12:20:28.010Z,3.42
2023-03-05T12:23:29.893Z,3.80
2023-03-05T12:26:59.530Z,4.12
2023-03-05T12:30:04.309Z,4.02
2023-03-05T12:33:28.995Z,3.68
2023-03-05T12:36:35.425Z,3.44
2023-03-05T12:39:49.608Z,3.27
2023-03-05T12:42:55.899Z,3.09
2023-03-05T12:46:16.385Z,2.98
2023-03-05T12:49:35.952Z,3.04
2023-03-05T12:52:46.163Z,3.18
2023-03-05T12:55:55.736Z,3.43
2023-03-05T12:58:58.993Z,3.62
2023-03-05T13:02:03.101Z,3.94
2023-03-05T13:05:07.931Z,3.77
2023-03-05T13:08:14.861Z,3.90
2023-03-05T13:11:20.493Z,3.81
2023-03-05T13:14:46.350Z,3.76
2023-03-05T13:17:52.160Z,3.82
2023-03-05T13:21:04.614Z,3.88
2023-03-05T13:24:15.179Z,3.74
2023-03-05T13:27:21.229Z,3.70
2023-03-05T13:30:23.575Z,3.81
2023-03-05T13:33:26.423Z,3.67
2023-03-05T13:36:28.179Z,3.67
2023-03-05T13:39:33.220Z,3.68
2023-03-05T13:42:36.716Z,3.86
2023-03-05T13:45:40.267Z,3.85
2023-03-05T13:48:42.317Z,3.95
2023-03-05T13:51:44.695Z,4.10
2023-03-05T13:54:48.594Z,4.09
2023-03-05T13:57:51.286Z,4.03
2023-03-05T14:01:02.342Z,3.91
2023-03-05T14:04:07.294Z,3.78
2023-03-05T14:07:24.618Z,3.70
2023-03-05T14:10:29.567Z,3.62
2023-03-05T14:13:32.175Z,3.72
2023-03-05T14:16:33.913Z,3.74
2023-03-05T14:19:37.902Z,3.70
2023-03-05T14:22:40.745Z,3.81
2023-03-05T14:25:43.778Z,3.87
2023-03-05T14:28:50.347Z,3.86
2023-03-05T14:31:53.502Z,3.98
2023-03-05T14:34:56.623Z,4.02
2023-03-05T14:37:59.454Z,4.10
2023-03-05T14:41:16.157Z,4.20
2023-03-05T14:44:19.684Z,4.10
2023-03-05T14:47:22.345Z,4.04
2023-03-05T14:50:25.326Z,3.94
2023-03-05T14:53:31.763Z,3.92
2023-03-05T14:56:33.802Z,3.94
2023-03-05T14:59:37.598Z,3.98
2023-03-05T15:02:39.756Z,3.93
2023-03-05T15:05:42.126Z,3.98
2023-03-05T15:08:44.094Z,3.92
2023-03-05T15:11:46.124Z,3.76
2023-03-05T15:14:49.539Z,3.71
2023-03-05T15:17:58.688Z,3.70
2023-03-05T15:21:00.303Z,3.68
2023-03-05T15:24:02.448Z,3.61
2023-03-05T15:27:05.852Z,3.57
2023-03-05T15:30:15.328Z,3.58
2023-03-05T15:33:17.557Z,3.53
2023-03-05T15:36:19.316Z,3.51
2023-03-05T15:39:21.537Z,3.51
2023-03-05T15:42:23.637Z,3.49
2023-03-05T15:45:27.445Z,3.49
2023-03-05T15:48:29.069Z,3.49
2023-03-05T15:51:30.879Z,3.48
2023-03-05T15:54:32.660Z,3.48
2023-03-05T15:57:35.550Z,3.51
2023-03-05T16:00:40.303Z,3.49
2023-03-05T16:03:41.979Z,3.51
2023-03-05T16:06:44.076Z,3.48
2023-03-05T16:09:48.082Z,3.47
2023-03-05T16:12:52.827Z,3.43
2023-03-05T16:15:56.615Z,3.39
2023-03-05T16:18:58.566Z,3.37
2023-03-05T16:22:00.212Z,3.34
2023-03-05T16:25:02.601Z,3.31
2023-03-05T16:28:04.836Z,3.30
2023-03-05T16:31:08.103Z,3.27
2023-03-05T16:34:09.897Z,3.26
2023-03-05T16:37:19.331Z,3.23
2023-03-05T16:40:21.142Z,3.20
2023-03-05T16:43:22.878Z,3.16
2023-03-05T16:46:27.064Z,3.13
2023-03-05T16:49:29.045Z,3.11
2023-03-05T16:52:31.003Z,3.04
2023-03-05T16:55:32.764Z,3.02
2023-03-05T16:58:35.216Z,2.99
2023-03-05T17:01:38.438Z,2.96
2023-03-05T17:04:40.084Z,2.91
2023-03-05T17:07:41.688Z,2.90
2023-03-05T17:10:43.426Z,2.84
2023-03-05T17:13:47.673Z,2.81
2023-03-05T17:16:52.018Z,2.79
2023-03-05T17:19:53.714Z,2.81
2023-03-05T17:22:55.723Z,2.79
2023-03-05T17:25:57.567Z,2.78
2023-03-05T17:28:59.291Z,2.75
2023-03-05T17:32:02.431Z,2.74
2023-03-05T17:35:05.620Z,2.72
2023-03-05T17:38:08.365Z,2.71
2023-03-05T17:41:10.522Z,2.72
2023-03-05T17:44:13.762Z,2.70
2023-03-05T17:47:17.395Z,2.69
2023-03-05T17:50:19.741Z,2.68
2023-03-05T17:53:22.051Z,2.65
2023-03-05T17:56:25.773Z,2.63
2023-03-05T17:59:28.627Z,2.61
2023-03-05T18:02:33.651Z,2.61
2023-03-05T18:05:35.701Z,2.59
2023-03-05T18:08:37.489Z,2.61
2023-03-05T18:11:39.482Z,2.61
2023-03-05T18:14:41.279Z,2.63
2023-03-05T18:17:44.662Z,2.64
2023-03-05T18:20:47.760Z,2.63
2023-03-05T18:23:50.083Z,2.64
2023-03-05T18:26:52.166Z,2.64
2023-03-05T18:29:54.362Z,2.65
2023-03-05T18:32:58.027Z,2.65
2023-03-05T18:35:59.876Z,2.67
2023-03-05T18:39:01.814Z,2.64
2023-03-05T18:42:03.461Z,2.65
2023-03-05T18:45:06.278Z,2.65
2023-03-05T18:48:10.082Z,2.65
2023-03-05T18:51:14.072Z,2.66
2023-03-05T18:54:15.788Z,2.64
2023-03-05T18:57:17.397Z,2.63
2023-03-05T19:00:20.017Z,2.61
2023-03-05T19:03:23.293Z,2.65
2023-03-05T19:06:24.991Z,2.65
2023-03-05T19:09:42.161Z,2.64
2023-03-05T19:12:55.742Z,2.64
2023-03-05T19:15:58.231Z,2.63
2023-03-05T19:19:13.808Z,2.61
2023-03-05T19:22:15.551Z,2.59
2023-03-05T19:25:18.291Z,2.57
2023-03-05T19:28:21.284Z,2.57
2023-03-05T19:31:23.322Z,2.58
2023-03-05T19:34:26.346Z,2.56
2023-03-05T19:37:28.106Z,2.56
2023-03-05T19:40:30.099Z,2.53
2023-03-05T19:43:31.788Z,2.52
2023-03-05T19:46:33.748Z,2.50
2023-03-05T19:49:37.212Z,2.48
2023-03-05T19:52:39.141Z,2.50
2023-03-05T19:55:40.960Z,2.49
2023-03-05T19:58:45.636Z,2.46
2023-03-05T20:01:48.201Z,2.45
2023-03-05T20:04:51.269Z,2.45
2023-03-05T20:07:53.175Z,2.43
2023-03-05T20:10:54.713Z,2.42
2023-03-05T20:13:56.530Z,2.38
2023-03-05T20:16:58.215Z,2.39
2023-03-05T20:20:02.386Z,2.37
2023-03-05T20:23:04.291Z,2.32
2023-03-05T20:26:06.883Z,2.32
2023-03-05T20:29:08.834Z,2.31
2023-03-05T20:32:10.708Z,2.29
2023-03-05T20:35:15.118Z,2.27
2023-03-05T20:38:25.192Z,2.25
2023-03-05T20:41:27.151Z,2.23
2023-03-05T20:44:29.128Z,2.23
2023-03-05T20:47:40.614Z,2.25
2023-03-05T20:50:44.174Z,2.25
2023-03-05T20:53:45.964Z,2.26
2023-03-05T20:56:48.015Z,2.25
2023-03-05T20:59:49.821Z,2.25
2023-03-05T21:02:54.646Z,2.24
2023-03-05T21:05:57.842Z,2.21
2023-03-05T21:08:59.995Z,2.15
2023-03-05T21:12:02.357Z,2.16
2023-03-05T21:15:05.081Z,2.17
2023-03-05T21:18:06.838Z,2.14
2023-03-05T21:21:10.238Z,2.11
2023-03-05T21:24:11.874Z,2.10
2023-03-05T21:27:13.479Z,2.08
2023-03-05T21:30:15.793Z,2.04
2023-03-05T21:33:19.215Z,2.01
2023-03-05T21:36:22.556Z,1.97
2023-03-05T21:39:24.819Z,1.93
2023-03-05T21:42:26.619Z,1.89
2023-03-05T21:45:29.307Z,1.85
2023-03-05T21:48:38.588Z,1.80
2023-03-05T21:51:53.254Z,1.78
2023-03-05T21:54:54.922Z,1.73
2023-03-05T21:57:56.722Z,1.71
2023-03-05T22:00:58.707Z,1.68
2023-03-05T22:04:00.860Z,1.64
2023-03-05T22:07:06.157Z,1.61
2023-03-05T22:10:10.697Z,1.57
2023-03-05T22:13:12.644Z,1.54
2023-03-05T22:16:21.080Z,1.53
2023-03-05T22:19:22.750Z,1.50
2023-03-05T22:22:26.914Z,1.51
2023-03-05T22:25:28.822Z,1.50
2023-03-05T22:28:30.758Z,1.48
2023-03-05T22:31:32.987Z,1.46
2023-03-05T22:34:34.754Z,1.49
2023-03-05T22:37:38.054Z,1.49
2023-03-05T22:40:42.315Z,1.48
2023-03-05T22:43:45.188Z,1.49
2023-03-05T22:46:47.017Z,1.50
2023-03-05T22:49:48.928Z,1.50
2023-03-05T22:52:52.266Z,1.51
2023-03-05T22:55:54.161Z,1.51
2023-03-05T22:58:56.383Z,1.49
2023-03-05T23:01:58.189Z,1.50
2023-03-05T23:05:01.526Z,1.51
2023-03-05T23:08:05.873Z,1.50
2023-03-05T23:11:08.089Z,1.52
2023-03-05T23:14:10.219Z,1.52
2023-03-05T23:17:12.400Z,1.53
2023-03-05T23:20:16.936Z,1.53
2023-03-05T23:23:20.253Z,1.55
2023-03-05T23:26:22.080Z,1.57
2023-03-05T23:29:25.808Z,1.56
2023-03-05T23:32:27.915Z,1.58
2023-03-05T23:35:30.463Z,1.58
2023-03-05T23:38:35.207Z,1.58
2023-03-05T23:41:36.905Z,1.57
2023-03-05T23:44:38.726Z,1.56
2023-03-05T23:47:40.964Z,1.57
2023-03-05T23:50:44.006Z,1.57
2023-03-05T23:53:48.384Z,1.56
2023-03-05T23:56:50.145Z,1.52
2023-03-05T23:59:51.845Z,1.50
